Time;durP1;ratioP1;P1;durP2;ratioP2;P2;SDS_P1;SDS_P2;PMS_P1;PMS_P2;Temp;Humidity;BMP_temperature;BMP_pressure;BME280_temperature;BME280_humidity;BME280_pressure;Samples;Min_cycle;Max_cycle;Signal;HPM_P1;HPM_P2
2021/09/22 00:00:37;;;;;;;10.20;9.20;;;;;;;13.70;65.25;101626.19;5011006;28;20969;-77
2021/09/22 00:03:03;;;;;;;9.10;8.17;;;;;;;13.67;65.34;101618.44;4996085;28;20959;-77
2021/09/22 00:05:28;;;;;;;9.73;8.83;;;;;;;13.66;65.64;101624.97;5014288;28;20408;-77
2021/09/22 00:07:53;;;;;;;9.03;8.13;;;;;;;13.62;66.34;101626.50;5007271;28;20405;-77
2021/09/22 00:10:19;;;;;;;9.20;8.27;;;;;;;13.58;66.33;101620.72;5010950;28;20404;-77
2021/09/22 00:12:48;;;;;;;9.10;8.20;;;;;;;13.53;66.61;101607.78;4992809;28;20453;-77
2021/09/22 00:15:16;;;;;;;10.50;9.40;;;;;;;13.47;66.92;101600.56;5010981;28;20420;-77
2021/09/22 00:17:42;;;;;;;9.93;9.00;;;;;;;13.45;66.52;101601.88;5011333;28;20415;-76
2021/09/22 00:20:10;;;;;;;9.25;8.35;;;;;;;13.45;66.78;101607.31;5009522;28;20762;-76
2021/09/22 00:22:35;;;;;;;9.43;8.48;;;;;;;13.44;66.42;101608.38;5011694;28;20638;-77
2021/09/22 00:25:00;;;;;;;10.23;8.80;;;;;;;13.41;66.42;101608.84;5013066;28;21002;-77
2021/09/22 00:27:26;;;;;;;9.20;8.23;;;;;;;13.45;67.00;101612.78;5002329;28;20511;-76
2021/09/22 00:29:51;;;;;;;9.10;8.13;;;;;;;13.47;67.03;101610.63;5007638;28;20422;-77
2021/09/22 00:32:16;;;;;;;7.57;6.90;;;;;;;13.48;66.84;101609.56;5013309;28;20472;-77
2021/09/22 00:34:41;;;;;;;8.03;7.20;;;;;;;13.49;66.20;101601.19;5011689;28;20424;-77
2021/09/22 00:37:07;;;;;;;8.40;7.27;;;;;;;13.50;66.54;101607.47;5013031;28;20400;-77
2021/09/22 00:39:34;;;;;;;7.77;6.73;;;;;;;13.50;66.74;101610.19;5025657;28;20425;-76
2021/09/22 00:42:01;;;;;;;7.80;7.20;;;;;;;13.52;66.78;101610.75;4996532;28;20559;-77
2021/09/22 00:44:26;;;;;;;8.60;7.75;;;;;;;13.50;66.53;101599.28;5012122;28;20470;-76
2021/09/22 00:46:51;;;;;;;8.33;7.53;;;;;;;13.50;66.09;101605.53;4994092;28;20815;-77
2021/09/22 00:49:17;;;;;;;8.27;7.53;;;;;;;13.50;66.00;101615.63;4994476;28;20436;-77
2021/09/22 00:51:42;;;;;;;7.87;7.10;;;;;;;13.51;66.05;101606.38;5010272;28;20900;-76
2021/09/22 00:54:07;;;;;;;7.97;7.20;;;;;;;13.53;65.55;101609.72;5011920;28;20417;-77
2021/09/22 00:56:33;;;;;;;7.90;7.27;;;;;;;13.51;65.95;101612.66;5004317;28;20896;-77
2021/09/22 00:58:58;;;;;;;7.40;6.80;;;;;;;13.49;65.80;101609.34;5007513;28;21060;-77
2021/09/22 01:01:23;;;;;;;9.47;7.10;;;;;;;13.48;65.57;101609.56;4997042;28;20429;-77
2021/09/22 01:03:48;;;;;;;8.13;7.43;;;;;;;13.48;65.54;101615.84;5010453;28;20775;-77
2021/09/22 01:06:15;;;;;;;7.60;7.00;;;;;;;13.48;65.37;101615.03;5003722;28;20399;-76
2021/09/22 01:08:41;;;;;;;8.85;6.80;;;;;;;13.47;65.05;101608.75;5004692;28;20447;-76
2021/09/22 01:11:07;;;;;;;8.43;7.47;;;;;;;13.46;65.39;101611.72;4999818;28;20410;-77
2021/09/22 01:13:32;;;;;;;7.95;7.22;;;;;;;13.46;65.37;101606.28;5007216;28;20423;-77
2021/09/22 01:15:58;;;;;;;8.20;7.50;;;;;;;13.44;65.81;101605.66;5012508;28;20393;-77
2021/09/22 01:18:23;;;;;;;8.18;7.18;;;;;;;13.42;65.61;101608.63;4985487;28;20407;-77
2021/09/22 01:20:52;;;;;;;8.30;7.53;;;;;;;13.40;65.09;101613.47;4990894;28;20911;-77
2021/09/22 01:23:18;;;;;;;12.30;7.97;;;;;;;13.36;65.42;101609.56;5006175;28;20408;-76
2021/09/22 01:25:47;;;;;;;7.47;6.78;;;;;;;13.37;65.50;101610.41;5010405;28;20884;-77
2021/09/22 01:28:15;;;;;;;10.43;7.50;;;;;;;13.37;65.38;101616.66;5009477;28;20400;-76
2021/09/22 01:30:40;;;;;;;8.23;7.15;;;;;;;13.35;65.49;101616.06;5008900;28;20436;-77
2021/09/22 01:33:10;;;;;;;8.73;7.83;;;;;;;13.36;65.77;101615.03;4993677;28;20432;-77
2021/09/22 01:35:38;;;;;;;9.13;7.47;;;;;;;13.37;65.29;101626.75;5011545;28;20496;-77
2021/09/22 01:38:06;;;;;;;7.70;6.90;;;;;;;13.33;65.39;101623.66;5007531;28;20713;-77
2021/09/22 01:40:32;;;;;;;8.50;7.70;;;;;;;13.27;66.07;101629.22;5009654;28;20404;-76
2021/09/22 01:42:57;;;;;;;8.43;7.63;;;;;;;13.24;66.32;101625.03;5005988;28;20923;-77
2021/09/22 01:45:23;;;;;;;10.10;7.72;;;;;;;13.26;66.48;101620.22;5008221;28;20705;-77
2021/09/22 01:47:49;;;;;;;10.82;8.30;;;;;;;13.29;66.53;101624.34;4992093;28;20477;-76
2021/09/22 01:50:17;;;;;;;8.43;7.73;;;;;;;13.26;66.46;101622.94;5009890;28;20423;-77
2021/09/22 01:52:45;;;;;;;8.90;8.00;;;;;;;13.26;66.03;101619.38;5009349;28;20398;-76
2021/09/22 01:55:11;;;;;;;8.70;7.90;;;;;;;13.25;66.17;101625.88;5011602;28;20725;-76
2021/09/22 01:57:37;;;;;;;9.20;8.40;;;;;;;13.25;66.18;101623.16;5009366;28;20488;-77
2021/09/22 02:00:04;;;;;;;9.67;8.50;;;;;;;13.22;65.40;101618.19;5003961;28;20483;-77
2021/09/22 02:02:31;;;;;;;13.05;8.80;;;;;;;13.17;65.73;101616.16;5010039;28;20959;-76
2021/09/22 02:04:56;;;;;;;9.25;8.13;;;;;;;13.18;66.45;101611.53;5014085;28;20421;-77
2021/09/22 02:07:21;;;;;;;11.02;8.82;;;;;;;13.16;66.74;101610.97;5011528;28;20441;-77
2021/09/22 02:09:47;;;;;;;10.90;7.83;;;;;;;13.10;66.27;101604.56;5008544;28;20413;-77
2021/09/22 02:12:12;;;;;;;9.10;8.07;;;;;;;13.04;65.79;101605.44;4994424;28;20413;-76
2021/09/22 02:14:37;;;;;;;8.80;8.07;;;;;;;12.98;65.68;101604.50;5008797;28;20507;-77
2021/09/22 02:17:03;;;;;;;8.80;7.83;;;;;;;12.97;65.91;101602.03;5002420;28;20453;-77
2021/09/22 02:19:28;;;;;;;8.93;8.02;;;;;;;12.99;65.83;101608.88;5004524;28;20411;-77
2021/09/22 02:21:55;;;;;;;9.40;8.38;;;;;;;13.00;66.81;101598.84;5010699;28;20413;-76
2021/09/22 02:24:20;;;;;;;10.65;7.72;;;;;;;13.01;66.78;101600.47;5005561;28;20501;-77
2021/09/22 02:26:45;;;;;;;10.03;8.57;;;;;;;13.01;66.69;101593.13;5007243;28;20964;-76
2021/09/22 02:29:11;;;;;;;10.40;9.00;;;;;;;13.01;66.60;101597.75;5010611;28;20413;-77
2021/09/22 02:31:36;;;;;;;10.40;9.30;;;;;;;12.99;67.08;101587.13;5019955;28;20416;-77
2021/09/22 02:34:02;;;;;;;9.67;8.80;;;;;;;12.99;67.31;101595.28;5007220;28;20957;-77
2021/09/22 02:36:28;;;;;;;9.05;7.97;;;;;;;12.96;67.13;101597.63;5004652;28;20441;-76
2021/09/22 02:38:54;;;;;;;10.15;9.15;;;;;;;12.93;67.08;101595.38;5009842;28;20459;-77
2021/09/22 02:41:19;;;;;;;13.23;9.43;;;;;;;12.93;67.11;101595.38;5002314;28;20444;-76
2021/09/22 02:43:45;;;;;;;9.50;8.40;;;;;;;12.88;66.67;101587.91;5008153;28;20417;-76
2021/09/22 02:46:10;;;;;;;10.03;8.33;;;;;;;12.87;66.52;101586.28;5009765;28;20431;-76
2021/09/22 02:48:36;;;;;;;13.80;9.27;;;;;;;12.89;66.85;101586.84;5010087;28;20511;-77
2021/09/22 02:51:02;;;;;;;9.68;8.75;;;;;;;12.87;67.05;101580.81;5009736;28;20408;-77
2021/09/22 02:53:29;;;;;;;9.27;8.30;;;;;;;12.86;66.91;101575.59;4996928;28;20447;-77
2021/09/22 02:55:54;;;;;;;10.63;8.73;;;;;;;12.82;66.23;101575.25;4993853;28;20415;-76
2021/09/22 02:58:20;;;;;;;9.13;8.27;;;;;;;12.82;66.36;101571.69;5010395;28;20409;-77
2021/09/22 03:00:46;;;;;;;10.17;8.50;;;;;;;12.79;66.58;101574.88;5009868;28;20439;-76
2021/09/22 03:03:12;;;;;;;10.38;9.25;;;;;;;12.76;67.03;101570.72;5010166;28;20441;-77
2021/09/22 03:05:37;;;;;;;10.43;9.35;;;;;;;12.76;67.32;101572.63;5006609;28;20926;-77
2021/09/22 03:08:02;;;;;;;13.13;9.43;;;;;;;12.77;67.17;101577.00;4998485;28;20473;-77
2021/09/22 03:10:28;;;;;;;11.02;9.93;;;;;;;12.77;67.14;101572.41;5004634;28;20400;-77
2021/09/22 03:12:55;;;;;;;10.83;9.53;;;;;;;12.73;67.16;101567.66;4994146;28;20416;-77
2021/09/22 03:15:20;;;;;;;11.43;10.32;;;;;;;12.69;67.39;101571.88;5014808;28;20397;-77
2021/09/22 03:17:45;;;;;;;11.07;9.97;;;;;;;12.69;67.04;101570.00;5011874;28;20412;-77
2021/09/22 03:20:11;;;;;;;11.83;9.50;;;;;;;12.67;67.62;101590.34;5014640;28;20396;-77
2021/09/22 03:22:36;;;;;;;11.50;10.30;;;;;;;12.63;67.22;101591.84;5012553;28;20408;-76
2021/09/22 03:25:03;;;;;;;11.00;9.93;;;;;;;12.62;67.76;101593.72;5013601;28;20420;-76
2021/09/22 03:27:29;;;;;;;10.77;9.87;;;;;;;12.62;67.95;101595.63;5006885;28;20949;-77
2021/09/22 03:29:54;;;;;;;10.10;9.00;;;;;;;12.55;67.05;101592.16;5022409;28;20519;-77
2021/09/22 03:32:19;;;;;;;11.47;10.00;;;;;;;12.55;67.61;101586.72;5014231;28;20401;-77
2021/09/22 03:34:45;;;;;;;9.83;8.83;;;;;;;12.55;67.14;101584.84;5005986;28;20449;-77
2021/09/22 03:37:10;;;;;;;10.50;9.50;;;;;;;12.54;67.35;101582.38;5009325;28;20438;-77
2021/09/22 03:39:35;;;;;;;9.63;8.73;;;;;;;12.54;67.90;101585.91;5011599;28;20891;-77
2021/09/22 03:42:01;;;;;;;10.73;9.83;;;;;;;12.50;68.04;101587.44;4994820;28;20576;-77
2021/09/22 03:44:26;;;;;;;10.60;9.60;;;;;;;12.48;67.79;101587.66;5011335;28;20460;-77
2021/09/22 03:46:55;;;;;;;10.30;9.23;;;;;;;12.49;68.17;101591.19;5010917;28;20415;-77
2021/09/22 03:49:21;;;;;;;10.48;9.48;;;;;;;12.48;67.50;101592.25;5010671;28;20405;-76
2021/09/22 03:51:49;;;;;;;11.60;9.65;;;;;;;12.48;67.86;101584.94;5005455;28;20810;-76
2021/09/22 03:54:15;;;;;;;9.98;8.98;;;;;;;12.46;67.22;101597.94;5007983;28;20410;-76
2021/09/22 03:56:40;;;;;;;10.93;9.17;;;;;;;12.38;67.17;101590.06;5006766;28;20408;-77
2021/09/22 03:59:06;;;;;;;9.93;9.03;;;;;;;12.36;66.98;101583.22;5010581;28;20420;-77
2021/09/22 04:01:31;;;;;;;13.10;9.87;;;;;;;12.30;67.17;101586.84;5010815;28;20416;-77
2021/09/22 04:03:56;;;;;;;10.60;9.53;;;;;;;12.23;67.54;101588.81;5011022;28;20412;-77
2021/09/22 04:06:22;;;;;;;10.43;9.40;;;;;;;12.20;67.40;101595.56;5011905;28;20507;-76
2021/09/22 04:08:47;;;;;;;10.17;9.03;;;;;;;12.18;67.44;101594.97;5009628;28;20467;-77
2021/09/22 04:11:12;;;;;;;10.40;9.13;;;;;;;12.19;67.41;101593.88;5008730;28;20419;-77
2021/09/22 04:13:38;;;;;;;12.03;9.60;;;;;;;12.22;67.36;101598.88;5010719;28;20698;-76
2021/09/22 04:16:04;;;;;;;11.10;9.07;;;;;;;12.24;67.38;101601.38;4996341;28;20985;-77
2021/09/22 04:18:29;;;;;;;11.30;9.18;;;;;;;12.31;67.16;101604.84;5007121;28;20499;-76
2021/09/22 04:20:54;;;;;;;13.33;9.47;;;;;;;12.37;66.96;101609.34;5018059;28;20417;-77
2021/09/22 04:23:20;;;;;;;10.17;8.37;;;;;;;12.29;66.86;101612.38;5005174;28;20440;-76
2021/09/22 04:25:45;;;;;;;11.02;8.95;;;;;;;12.24;66.78;101612.25;5007206;28;20779;-77
2021/09/22 04:28:11;;;;;;;11.10;9.60;;;;;;;12.19;66.83;101609.34;5005670;28;20413;-76
2021/09/22 04:30:36;;;;;;;9.75;8.80;;;;;;;12.25;66.83;101608.47;5003471;28;20401;-77
2021/09/22 04:33:02;;;;;;;10.13;9.10;;;;;;;12.24;66.43;101602.19;5009407;28;20484;-76
2021/09/22 04:35:29;;;;;;;10.07;8.93;;;;;;;12.19;66.27;101607.47;4990979;28;20959;-77
2021/09/22 04:37:54;;;;;;;9.50;8.60;;;;;;;12.13;66.54;101605.66;4993196;28;20499;-76
2021/09/22 04:40:20;;;;;;;9.57;8.57;;;;;;;12.15;66.96;101606.25;5011191;28;20589;-77
2021/09/22 04:42:45;;;;;;;11.27;9.70;;;;;;;12.17;66.95;101606.88;4992089;28;20504;-76
2021/09/22 04:45:10;;;;;;;9.90;8.87;;;;;;;12.16;66.66;101616.09;4995392;28;20415;-79
2021/09/22 04:47:36;;;;;;;10.83;8.97;;;;;;;12.15;66.76;101611.69;5010520;28;20405;-77
2021/09/22 04:50:04;;;;;;;10.27;9.02;;;;;;;12.17;67.40;101603.31;4997281;28;20400;-76
2021/09/22 04:52:30;;;;;;;10.52;9.50;;;;;;;12.22;67.24;101604.28;5001303;28;20412;-76
2021/09/22 04:54:55;;;;;;;10.83;9.53;;;;;;;12.22;67.18;101592.59;5002266;28;20420;-77
2021/09/22 04:57:20;;;;;;;9.83;8.90;;;;;;;12.19;67.45;101596.59;5008082;28;21176;-77
2021/09/22 04:59:46;;;;;;;9.57;8.60;;;;;;;12.21;67.33;101597.22;4998956;28;20480;-78
2021/09/22 05:02:11;;;;;;;10.53;8.97;;;;;;;12.24;68.12;101595.94;4997172;28;20548;-78
2021/09/22 05:04:37;;;;;;;10.70;9.60;;;;;;;12.22;67.14;101604.28;4999673;28;20439;-77
2021/09/22 05:07:02;;;;;;;13.50;9.53;;;;;;;12.18;67.52;101599.56;5000097;28;20422;-77
2021/09/22 05:09:28;;;;;;;10.52;9.52;;;;;;;12.16;68.09;101599.78;4997447;28;20706;-77
2021/09/22 05:11:54;;;;;;;10.10;9.20;;;;;;;12.15;67.82;101595.38;5013768;28;20428;-77
2021/09/22 05:14:20;;;;;;;10.90;9.30;;;;;;;12.17;67.73;101606.03;4997142;28;20463;-77
2021/09/22 05:16:45;;;;;;;11.65;10.45;;;;;;;12.14;68.12;101599.19;4998605;28;21987;-76
2021/09/22 05:19:11;;;;;;;13.60;12.23;;;;;;;12.14;68.28;101609.22;4980875;28;20416;-77
2021/09/22 05:21:36;;;;;;;13.27;12.03;;;;;;;12.13;68.12;101608.38;5004127;28;20433;-78
2021/09/22 05:24:01;;;;;;;14.03;11.27;;;;;;;12.13;68.25;101613.81;5004308;28;20511;-78
2021/09/22 05:26:27;;;;;;;11.20;10.10;;;;;;;12.12;68.11;101614.06;5008745;28;20424;-77
2021/09/22 05:28:52;;;;;;;12.47;10.03;;;;;;;12.11;68.10;101621.38;5004142;28;20451;-77
2021/09/22 05:31:17;;;;;;;10.23;9.37;;;;;;;12.10;67.98;101619.72;5009230;28;20458;-76
2021/09/22 05:33:42;;;;;;;9.97;8.97;;;;;;;12.08;67.72;101613.69;5008644;28;20459;-78
2021/09/22 05:36:08;;;;;;;11.02;9.77;;;;;;;12.10;67.96;101618.88;5011488;28;20759;-77
2021/09/22 05:38:33;;;;;;;11.43;10.27;;;;;;;12.09;68.13;101609.91;5008108;28;20455;-78
2021/09/22 05:40:58;;;;;;;13.03;9.60;;;;;;;12.08;68.09;101616.41;5011409;28;20462;-78
2021/09/22 05:43:24;;;;;;;10.90;9.90;;;;;;;12.09;67.86;101617.22;4989065;28;20483;-77
2021/09/22 05:45:49;;;;;;;10.43;9.43;;;;;;;12.12;68.31;101616.78;5012378;28;20420;-77
2021/09/22 05:48:14;;;;;;;11.33;9.70;;;;;;;12.12;68.16;101619.50;4973560;28;20421;-77
2021/09/22 05:50:39;;;;;;;12.10;10.13;;;;;;;12.13;68.00;101615.72;5007318;28;20504;-77
2021/09/22 05:53:05;;;;;;;11.75;10.25;;;;;;;12.17;67.64;101611.47;5008273;28;20773;-77
2021/09/22 05:55:30;;;;;;;13.53;10.23;;;;;;;12.21;67.79;101612.69;5005682;28;20444;-77
2021/09/22 05:57:56;;;;;;;14.52;10.23;;;;;;;12.24;67.96;101615.78;4999271;28;20405;-77
2021/09/22 06:00:21;;;;;;;11.93;10.83;;;;;;;12.28;67.35;101608.81;4999838;28;20915;-77
2021/09/22 06:02:46;;;;;;;12.93;9.97;;;;;;;12.35;67.38;101608.72;5002535;28;20413;-76
2021/09/22 06:05:12;;;;;;;11.17;10.03;;;;;;;12.39;67.07;101612.66;5007058;28;20780;-76
2021/09/22 06:07:37;;;;;;;12.90;10.40;;;;;;;12.41;67.29;101613.28;5008700;28;20459;-76
2021/09/22 06:10:04;;;;;;;14.03;10.27;;;;;;;12.43;67.58;101611.16;5010169;28;20462;-77
2021/09/22 06:12:29;;;;;;;12.75;10.60;;;;;;;12.46;67.34;101606.09;5009686;28;20425;-77
2021/09/22 06:14:54;;;;;;;10.97;9.80;;;;;;;12.51;66.81;101605.41;5006566;28;20407;-77
2021/09/22 06:17:20;;;;;;;14.27;10.27;;;;;;;12.57;67.09;101609.09;5008534;28;20927;-77
2021/09/22 06:19:45;;;;;;;10.40;9.43;;;;;;;12.58;66.72;101613.47;5009914;28;20421;-77
2021/09/22 06:22:10;;;;;;;11.60;10.23;;;;;;;12.55;66.55;101614.75;5000294;28;20780;-78
2021/09/22 06:24:37;;;;;;;13.27;10.33;;;;;;;12.43;66.41;101616.59;5008603;28;20433;-77
2021/09/22 06:27:02;;;;;;;11.73;10.52;;;;;;;12.44;66.51;101620.97;5009512;28;20420;-77
2021/09/22 06:29:27;;;;;;;12.97;10.10;;;;;;;12.51;66.67;101619.00;5005729;28;20417;-77
2021/09/22 06:31:55;;;;;;;13.63;10.23;;;;;;;12.49;66.42;101616.50;5005117;28;20428;-77
2021/09/22 06:34:20;;;;;;;12.33;10.37;;;;;;;12.45;66.23;101625.34;5003248;28;20468;-78
2021/09/22 06:36:45;;;;;;;13.03;11.17;;;;;;;12.46;66.24;101627.00;5006816;28;20413;-76
2021/09/22 06:39:10;;;;;;;13.20;10.83;;;;;;;12.48;66.27;101628.44;5003057;28;20425;-76
2021/09/22 06:41:36;;;;;;;13.63;10.73;;;;;;;12.55;66.73;101627.50;5005936;28;20425;-75
2021/09/22 06:44:01;;;;;;;13.40;10.77;;;;;;;12.62;67.17;101636.41;5005074;28;20436;-76
2021/09/22 06:46:27;;;;;;;12.68;11.30;;;;;;;12.68;67.16;101635.50;5011250;28;20420;-76
2021/09/22 06:48:52;;;;;;;12.47;11.10;;;;;;;12.75;67.15;101628.06;5010686;28;20451;-76
2021/09/22 06:51:18;;;;;;;11.83;10.70;;;;;;;12.70;66.62;101628.78;5014146;28;20396;-77
2021/09/22 06:53:47;;;;;;;16.38;10.70;;;;;;;12.69;66.92;101631.72;5013277;28;20412;-76
2021/09/22 06:56:13;;;;;;;12.70;11.38;;;;;;;12.71;66.48;101635.84;5013296;28;20462;-77
2021/09/22 06:58:38;;;;;;;12.73;11.10;;;;;;;12.73;66.44;101636.47;5007210;28;20410;-76
2021/09/22 07:01:04;;;;;;;14.60;10.87;;;;;;;12.75;66.08;101637.06;5006640;28;20439;-76
2021/09/22 07:03:29;;;;;;;15.20;11.63;;;;;;;12.78;66.45;101639.31;5010512;28;20459;-76
2021/09/22 07:05:55;;;;;;;12.57;11.20;;;;;;;12.80;66.77;101636.38;5006243;28;20764;-76
2021/09/22 07:08:20;;;;;;;17.65;11.13;;;;;;;12.87;67.20;101637.13;5005401;28;20443;-76
2021/09/22 07:10:46;;;;;;;20.00;12.33;;;;;;;12.91;66.85;101636.41;5007461;28;20528;-76
2021/09/22 07:13:11;;;;;;;14.60;11.77;;;;;;;12.95;65.85;101642.22;5012068;28;20413;-76
2021/09/22 07:15:36;;;;;;;13.87;10.97;;;;;;;12.95;65.74;101650.38;5013980;28;20899;-77
2021/09/22 07:18:03;;;;;;;15.57;11.87;;;;;;;13.01;65.51;101649.44;5011868;28;20827;-76
2021/09/22 07:20:28;;;;;;;12.93;11.73;;;;;;;13.08;65.33;101652.06;5011533;28;20455;-76
2021/09/22 07:22:54;;;;;;;11.90;10.70;;;;;;;13.11;65.27;101657.09;5010581;28;20514;-76
2021/09/22 07:25:23;;;;;;;12.13;10.93;;;;;;;13.13;65.02;101666.69;5013454;28;20420;-76
2021/09/22 07:27:48;;;;;;;12.30;11.10;;;;;;;13.17;65.34;101662.41;4994471;28;20417;-76
2021/09/22 07:30:14;;;;;;;13.77;11.37;;;;;;;13.17;64.96;101661.63;5012684;28;20436;-76
2021/09/22 07:32:42;;;;;;;14.23;11.05;;;;;;;13.16;64.53;101660.78;4990921;28;20417;-75
2021/09/22 07:35:08;;;;;;;15.07;11.85;;;;;;;13.13;64.42;101663.13;4994760;28;20412;-75
2021/09/22 07:37:34;;;;;;;15.82;10.70;;;;;;;13.22;64.77;101664.47;5010750;28;20916;-77
2021/09/22 07:39:59;;;;;;;13.23;11.67;;;;;;;13.28;65.53;101661.63;5007441;28;20421;-76
2021/09/22 07:42:24;;;;;;;17.20;12.03;;;;;;;13.32;65.27;101662.84;5010818;28;20438;-76
2021/09/22 07:44:53;;;;;;;12.43;11.13;;;;;;;13.35;65.25;101659.63;5015276;28;20784;-76
2021/09/22 07:47:19;;;;;;;13.73;11.73;;;;;;;13.33;65.10;101655.50;5010441;28;20414;-76
2021/09/22 07:49:44;;;;;;;12.93;11.17;;;;;;;13.34;65.34;101652.53;5006897;28;20858;-76
2021/09/22 07:52:10;;;;;;;16.23;12.05;;;;;;;13.34;65.34;101654.41;5010470;28;20413;-77
2021/09/22 07:54:37;;;;;;;15.32;11.88;;;;;;;13.35;65.06;101656.91;4991691;28;20417;-77
2021/09/22 07:57:02;;;;;;;14.02;11.85;;;;;;;13.39;65.35;101657.28;5007638;28;20882;-77
2021/09/22 07:59:29;;;;;;;23.30;12.67;;;;;;;13.43;65.51;101653.03;5006469;28;20440;-76
2021/09/22 08:01:54;;;;;;;14.05;12.50;;;;;;;13.46;65.36;101652.56;5013571;28;20455;-77
2021/09/22 08:04:20;;;;;;;13.17;11.27;;;;;;;13.53;64.96;101653.28;5007362;28;20413;-78
2021/09/22 08:06:45;;;;;;;13.93;11.53;;;;;;;13.60;65.01;101656.69;5009055;28;20416;-76
2021/09/22 08:09:10;;;;;;;12.53;11.23;;;;;;;13.65;64.42;101651.38;5009810;28;20451;-75
2021/09/22 08:11:36;;;;;;;15.80;11.90;;;;;;;13.69;64.61;101670.81;5012240;28;20424;-75
2021/09/22 08:14:01;;;;;;;14.03;12.30;;;;;;;13.70;64.31;101665.13;5010814;28;20412;-75
2021/09/22 08:16:26;;;;;;;13.63;12.07;;;;;;;13.70;64.80;101659.66;5011855;28;20459;-75
2021/09/22 08:18:51;;;;;;;13.10;11.57;;;;;;;13.79;64.02;101658.28;5008955;28;20498;-75
2021/09/22 08:21:17;;;;;;;18.10;11.63;;;;;;;13.85;64.58;101657.31;5011263;28;20486;-75
2021/09/22 08:23:42;;;;;;;15.25;12.02;;;;;;;13.91;64.52;101655.53;5007853;28;20413;-75
2021/09/22 08:26:08;;;;;;;13.53;12.23;;;;;;;13.98;64.37;101656.25;4994136;28;20474;-76
2021/09/22 08:28:33;;;;;;;13.85;11.68;;;;;;;14.04;63.75;101663.47;5010788;28;20466;-75
2021/09/22 08:30:59;;;;;;;12.33;11.07;;;;;;;14.06;63.55;101668.69;5007451;28;20424;-76
2021/09/22 08:33:24;;;;;;;13.03;11.60;;;;;;;14.11;64.15;101671.50;5009579;28;20408;-76
2021/09/22 08:35:49;;;;;;;13.85;12.20;;;;;;;14.20;63.72;101667.34;5012850;28;20489;-75
2021/09/22 08:38:15;;;;;;;12.43;11.13;;;;;;;14.29;63.81;101668.66;4993410;28;21195;-76
2021/09/22 08:40:40;;;;;;;13.40;11.47;;;;;;;14.40;63.26;101668.66;5011045;28;20611;-76
2021/09/22 08:43:06;;;;;;;13.00;10.87;;;;;;;14.51;62.96;101672.44;5009236;28;20412;-75
2021/09/22 08:45:34;;;;;;;14.43;11.43;;;;;;;14.60;62.68;101668.25;5008224;28;20434;-76
2021/09/22 08:48:00;;;;;;;12.85;11.57;;;;;;;14.69;62.59;101674.97;5008960;28;20413;-75
2021/09/22 08:50:28;;;;;;;14.75;10.73;;;;;;;14.78;62.14;101673.53;4994089;28;20417;-75
2021/09/22 08:52:54;;;;;;;12.52;11.32;;;;;;;14.88;61.95;101664.72;4994526;28;20419;-76
2021/09/22 08:55:19;;;;;;;12.63;10.93;;;;;;;15.05;61.98;101680.03;5012979;28;20760;-76
2021/09/22 08:57:47;;;;;;;14.90;10.30;;;;;;;15.19;61.18;101677.00;5011442;28;20405;-76
2021/09/22 09:00:18;;;;;;;13.10;10.98;;;;;;;15.24;60.09;101683.41;5008473;28;20807;-77
2021/09/22 09:02:46;;;;;;;12.07;10.80;;;;;;;15.29;60.35;101682.63;5010458;28;20772;-76
2021/09/22 09:05:14;;;;;;;13.85;10.93;;;;;;;15.36;60.59;101678.69;5011936;28;20524;-75
2021/09/22 09:08:08;;;;;;;12.63;11.20;;;;;;;15.42;60.08;101672.22;5005940;28;20477;-76
2021/09/22 09:10:37;;;;;;;13.02;10.93;;;;;;;15.42;59.94;101677.69;4997956;28;20465;-76
2021/09/22 09:13:07;;;;;;;13.85;10.90;;;;;;;15.47;60.26;101675.06;4989129;28;20425;-77
2021/09/22 09:15:47;;;;;;;14.02;10.85;;;;;;;15.55;59.64;101671.09;4999568;28;20412;-76
2021/09/22 09:18:17;;;;;;;11.52;10.02;;;;;;;15.64;59.50;101671.53;5011162;28;20413;-75
2021/09/22 09:20:47;;;;;;;14.23;10.40;;;;;;;15.73;59.17;101661.84;5011192;28;20404;-76
2021/09/22 09:23:16;;;;;;;11.10;9.90;;;;;;;15.84;59.19;101663.66;5009792;28;20466;-75
2021/09/22 09:26:03;;;;;;;10.48;9.10;;;;;;;15.99;57.24;101656.50;5011836;28;20427;-76
2021/09/22 09:28:31;;;;;;;9.43;8.45;;;;;;;16.13;57.00;101653.41;5007183;28;20443;-75
2021/09/22 09:31:01;;;;;;;15.07;9.90;;;;;;;16.27;56.95;101651.97;5011537;28;20558;-76
2021/09/22 09:33:37;;;;;;;10.20;8.63;;;;;;;16.49;56.29;101644.56;5009277;28;20496;-75
2021/09/22 09:36:24;;;;;;;11.18;8.85;;;;;;;16.79;55.16;101642.22;5011190;28;20413;-76
2021/09/22 09:38:52;;;;;;;9.70;8.75;;;;;;;16.88;54.51;101648.88;5010690;28;20558;-76
2021/09/22 09:41:39;;;;;;;13.05;9.65;;;;;;;17.06;54.12;101644.94;5011337;28;20408;-76
2021/09/22 09:44:07;;;;;;;12.30;8.40;;;;;;;17.41;53.72;101647.19;4990746;28;20452;-75
2021/09/22 09:46:37;;;;;;;11.10;8.43;;;;;;;18.50;50.78;101642.72;5008379;28;20400;-76
2021/09/22 09:49:14;;;;;;;9.65;8.70;;;;;;;19.04;49.38;101639.53;5011028;28;20499;-76
2021/09/22 09:51:45;;;;;;;8.35;7.55;;;;;;;19.31;48.38;101640.13;5002815;28;20409;-76
2021/09/22 09:54:12;;;;;;;8.07;7.30;;;;;;;19.69;47.34;101644.28;5006608;28;20424;-76
2021/09/22 09:56:38;;;;;;;8.23;7.50;;;;;;;20.20;45.56;101631.22;5009982;28;20448;-76
2021/09/22 09:59:04;;;;;;;8.03;6.90;;;;;;;20.56;44.28;101618.16;4991839;28;20447;-76
2021/09/22 10:01:37;;;;;;;8.80;6.82;;;;;;;20.90;43.55;101618.25;5011408;28;20409;-76
2021/09/22 10:04:05;;;;;;;8.68;7.60;;;;;;;21.14;42.46;101614.50;4991469;28;20440;-76
2021/09/22 10:06:30;;;;;;;6.97;6.38;;;;;;;21.48;42.69;101613.69;5009573;28;20417;-76
2021/09/22 10:08:56;;;;;;;7.07;6.50;;;;;;;21.77;42.09;101610.94;4993445;28;20474;-75
2021/09/22 10:11:23;;;;;;;7.75;6.63;;;;;;;22.24;40.85;101610.97;5005511;28;20417;-75
2021/09/22 10:13:49;;;;;;;6.67;6.07;;;;;;;22.61;39.94;101610.22;5005135;28;20492;-76
2021/09/22 10:16:16;;;;;;;6.95;6.30;;;;;;;22.87;39.37;101599.63;5010798;28;20412;-76
2021/09/22 10:18:42;;;;;;;6.55;5.95;;;;;;;22.92;38.89;101602.34;5009023;28;20409;-76
2021/09/22 10:21:08;;;;;;;13.05;6.40;;;;;;;23.17;38.25;101596.41;5000511;28;20406;-76
2021/09/22 10:23:34;;;;;;;5.07;4.70;;;;;;;23.40;37.91;101591.88;4988230;28;20920;-76
2021/09/22 10:26:00;;;;;;;4.90;4.50;;;;;;;23.71;36.54;101593.00;5010305;28;20911;-76
2021/09/22 10:28:36;;;;;;;4.88;4.10;;;;;;;24.22;35.79;101587.28;5006621;28;20985;-76
2021/09/22 10:31:01;;;;;;;4.38;3.58;;;;;;;24.46;34.19;101573.22;5009923;28;20506;-76
2021/09/22 10:33:30;;;;;;;3.37;3.17;;;;;;;24.42;34.12;101577.72;5010557;28;20438;-76
2021/09/22 10:36:01;;;;;;;3.88;2.92;;;;;;;24.45;33.27;101582.66;5005710;28;20462;-76
2021/09/22 10:38:26;;;;;;;4.97;2.97;;;;;;;23.70;33.66;101580.28;5006124;28;20495;-76
2021/09/22 10:41:02;;;;;;;2.67;2.57;;;;;;;23.87;34.30;101588.00;4992742;28;20970;-76
2021/09/22 10:43:39;;;;;;;3.25;3.13;;;;;;;24.40;33.54;101568.91;5006039;28;20891;-76
2021/09/22 10:46:07;;;;;;;3.75;2.65;;;;;;;24.56;32.36;101573.00;4995300;28;20445;-76
2021/09/22 10:48:35;;;;;;;3.53;2.47;;;;;;;24.55;32.52;101568.56;5009661;28;20444;-76
2021/09/22 10:51:04;;;;;;;2.63;2.43;;;;;;;24.75;32.62;101562.56;5009877;28;20588;-75
2021/09/22 10:53:33;;;;;;;2.55;2.35;;;;;;;25.04;32.85;101557.44;5008979;28;20405;-76
2021/09/22 10:56:04;;;;;;;2.40;2.20;;;;;;;25.10;31.93;101556.16;4991919;28;20459;-76
2021/09/22 10:58:33;;;;;;;3.50;1.87;;;;;;;25.17;31.43;101558.50;5003750;28;20408;-76
2021/09/22 11:00:59;;;;;;;5.60;2.30;;;;;;;25.16;30.72;101552.13;4992923;28;20496;-76
2021/09/22 11:03:50;;;;;;;2.77;2.50;;;;;;;25.54;31.15;101554.50;5009330;28;20405;-76
2021/09/22 11:06:46;;;;;;;1.70;1.60;;;;;;;25.64;30.06;101543.97;4997453;28;20757;-76
2021/09/22 11:09:21;;;;;;;2.25;1.80;;;;;;;25.55;30.29;101545.88;5008017;28;20435;-76
2021/09/22 11:11:55;;;;;;;6.13;1.90;;;;;;;25.39;30.46;101543.81;5008879;28;20432;-76
2021/09/22 11:14:31;;;;;;;6.40;2.20;;;;;;;25.51;30.13;101536.53;4996702;28;20770;-76